createdAt,value
2022-11-05T00:01:29.080Z,26.90
2022-11-05T00:04:14.571Z,27.00
2022-11-05T00:07:00.601Z,27.20
2022-11-05T00:09:30.724Z,27.50
2022-11-05T00:12:18.454Z,27.10
2022-11-05T00:15:04.076Z,26.90
2022-11-05T00:17:30.988Z,26.90
2022-11-05T00:19:57.953Z,26.80
2022-11-05T00:22:44.011Z,27.00
2022-11-05T00:25:17.160Z,27.00
2022-11-05T00:27:48.286Z,27.10
2022-11-05T00:30:18.251Z,27.00
2022-11-05T00:32:47.207Z,26.90
2022-11-05T00:35:14.699Z,26.90
2022-11-05T00:37:47.154Z,26.80
2022-11-05T00:40:16.760Z,26.90
2022-11-05T00:43:03.415Z,27.00
2022-11-05T00:45:31.136Z,26.80
2022-11-05T00:48:17.204Z,26.50
2022-11-05T00:50:44.073Z,26.50
2022-11-05T00:53:11.290Z,26.40
2022-11-05T00:55:41.123Z,26.40
2022-11-05T00:58:19.217Z,26.50
2022-11-05T01:00:59.379Z,26.60
2022-11-05T01:03:28.932Z,26.60
2022-11-05T01:05:59.205Z,26.90
2022-11-05T01:08:27.773Z,27.00
2022-11-05T01:10:57.491Z,26.80
2022-11-05T01:13:28.163Z,26.70
2022-11-05T01:15:56.041Z,26.60
2022-11-05T01:18:24.521Z,26.50
2022-11-05T01:20:51.681Z,26.60
2022-11-05T01:23:18.929Z,26.40
2022-11-05T01:25:46.077Z,26.20
2022-11-05T01:28:13.003Z,25.90
2022-11-05T01:30:40.005Z,25.90
2022-11-05T01:33:07.268Z,26.00
2022-11-05T01:35:34.251Z,26.00
2022-11-05T01:38:01.272Z,26.10
2022-11-05T01:40:28.208Z,26.10
2022-11-05T01:42:55.060Z,26.20
2022-11-05T01:45:26.799Z,26.30
2022-11-05T01:48:11.555Z,26.30
2022-11-05T01:50:47.522Z,26.40
2022-11-05T01:53:20.840Z,26.80
2022-11-05T01:56:10.102Z,26.60
2022-11-05T01:58:49.670Z,26.40
2022-11-05T02:01:17.956Z,26.40
2022-11-05T02:03:46.876Z,26.30
2022-11-05T02:06:16.816Z,26.10
2022-11-05T02:09:07.551Z,26.10
2022-11-05T02:11:34.748Z,26.20
2022-11-05T02:14:01.662Z,26.70
2022-11-05T02:16:40.539Z,26.30
2022-11-05T02:19:28.668Z,26.50
2022-11-05T02:22:23.393Z,26.20
2022-11-05T02:25:33.947Z,26.40
2022-11-05T02:28:09.494Z,26.20
2022-11-05T02:30:47.142Z,26.20
2022-11-05T02:33:23.266Z,25.90
2022-11-05T02:36:28.926Z,25.70
2022-11-05T02:39:34.260Z,25.60
2022-11-05T02:42:21.113Z,25.60
2022-11-05T02:45:15.403Z,25.70
2022-11-05T02:47:46.468Z,25.70
2022-11-05T02:50:25.343Z,25.80
2022-11-05T02:53:07.751Z,25.70
2022-11-05T02:55:42.634Z,25.60
2022-11-05T02:58:09.835Z,25.40
2022-11-05T03:00:58.036Z,25.30
2022-11-05T03:03:39.252Z,25.10
2022-11-05T03:06:17.790Z,25.10
2022-11-05T03:09:18.016Z,25.00
2022-11-05T03:11:54.028Z,25.10
2022-11-05T03:14:37.764Z,25.10
2022-11-05T03:17:55.221Z,24.90
2022-11-05T03:20:44.643Z,24.70
2022-11-05T03:23:11.847Z,24.60
2022-11-05T03:25:49.981Z,24.60
2022-11-05T03:28:21.444Z,24.50
2022-11-05T03:30:51.599Z,24.60
2022-11-05T03:33:24.035Z,24.60
2022-11-05T03:35:55.625Z,24.50
2022-11-05T03:38:30.020Z,24.40
2022-11-05T03:41:01.482Z,24.50
2022-11-05T03:43:34.082Z,24.70
2022-11-05T03:46:11.171Z,24.80
2022-11-05T03:48:47.125Z,24.80
2022-11-05T03:51:19.198Z,24.80
2022-11-05T03:53:56.256Z,25.10
2022-11-05T03:56:48.731Z,25.10
2022-11-05T03:59:17.540Z,25.50
2022-11-05T04:01:44.664Z,25.20
2022-11-05T04:04:11.692Z,25.10
2022-11-05T04:06:57.054Z,25.20
2022-11-05T04:09:42.566Z,25.60
2022-11-05T04:12:29.646Z,25.90
2022-11-05T04:14:56.711Z,26.10
2022-11-05T04:17:23.639Z,25.70
2022-11-05T04:20:09.232Z,25.60
2022-11-05T04:22:55.217Z,25.30
2022-11-05T04:25:22.789Z,25.40
2022-11-05T04:27:49.844Z,25.80
2022-11-05T04:30:20.865Z,26.40
2022-11-05T04:33:09.255Z,26.70
2022-11-05T04:35:44.746Z,26.50
2022-11-05T04:38:17.603Z,26.30
2022-11-05T04:40:45.628Z,26.60
2022-11-05T04:43:15.457Z,26.60
2022-11-05T04:45:43.299Z,26.70
2022-11-05T04:48:10.839Z,26.60
2022-11-05T04:50:38.090Z,26.50
2022-11-05T04:53:04.994Z,26.20
2022-11-05T04:55:31.935Z,25.80
2022-11-05T04:57:58.862Z,25.40
2022-11-05T05:00:25.970Z,25.40
2022-11-05T05:02:52.980Z,25.80
2022-11-05T05:05:21.317Z,25.90
2022-11-05T05:07:48.252Z,26.00
2022-11-05T05:10:15.100Z,26.30
2022-11-05T05:12:42.005Z,25.70
2022-11-05T05:15:09.439Z,25.90
2022-11-05T05:17:36.346Z,25.90
2022-11-05T05:20:21.991Z,26.00
2022-11-05T05:22:53.402Z,26.20
2022-11-05T05:25:20.925Z,26.50
2022-11-05T05:27:47.822Z,26.50
2022-11-05T05:30:14.785Z,26.50
2022-11-05T05:32:41.725Z,26.40
2022-11-05T05:35:09.273Z,26.70
2022-11-05T05:37:36.237Z,26.70
2022-11-05T05:40:03.216Z,27.00
2022-11-05T05:42:30.173Z,27.00
2022-11-05T05:44:57.150Z,26.60
2022-11-05T05:47:24.080Z,26.20
2022-11-05T05:49:51.230Z,26.10
2022-11-05T05:52:18.251Z,26.00
2022-11-05T05:54:45.143Z,25.80
2022-11-05T05:57:12.089Z,25.60
2022-11-05T05:59:39.001Z,25.50
2022-11-05T06:02:05.983Z,25.30
2022-11-05T06:04:32.875Z,25.20
2022-11-05T06:06:59.760Z,25.30
2022-11-05T06:09:26.643Z,25.30
2022-11-05T06:11:53.553Z,25.40
2022-11-05T06:14:20.479Z,25.30
2022-11-05T06:16:47.370Z,25.30
2022-11-05T06:19:14.246Z,25.40
2022-11-05T06:21:41.169Z,25.20
2022-11-05T06:24:08.740Z,25.20
2022-11-05T06:26:35.705Z,25.30
2022-11-05T06:29:04.828Z,25.30
2022-11-05T06:31:31.678Z,25.40
2022-11-05T06:33:58.606Z,25.40
2022-11-05T06:36:25.618Z,25.40
2022-11-05T06:38:52.584Z,25.60
2022-11-05T06:41:19.463Z,25.60
2022-11-05T06:43:46.343Z,25.60
2022-11-05T06:46:14.730Z,25.50
2022-11-05T06:48:41.665Z,25.70
2022-11-05T06:51:09.720Z,26.00
2022-11-05T06:53:37.238Z,26.30
2022-11-05T06:56:07.844Z,26.50
2022-11-05T06:58:35.042Z,26.50
2022-11-05T07:01:10.755Z,26.40
2022-11-05T07:03:38.604Z,26.20
2022-11-05T07:06:07.016Z,26.10
2022-11-05T07:08:35.767Z,26.50
2022-11-05T07:11:03.246Z,26.30
2022-11-05T07:13:30.323Z,26.20
2022-11-05T07:15:57.370Z,26.10
2022-11-05T07:18:24.330Z,26.30
2022-11-05T07:20:51.210Z,26.10
2022-11-05T07:23:18.185Z,26.00
2022-11-05T07:25:45.214Z,25.90
2022-11-05T07:28:14.573Z,26.00
2022-11-05T07:30:41.909Z,25.70
2022-11-05T07:33:09.929Z,26.00
2022-11-05T07:35:37.159Z,26.30
2022-11-05T07:38:06.793Z,26.90
2022-11-05T07:40:33.772Z,26.90
2022-11-05T07:43:01.651Z,26.80
2022-11-05T07:45:30.438Z,26.80
2022-11-05T07:48:02.505Z,27.00
2022-11-05T07:50:31.944Z,27.10
2022-11-05T07:53:08.127Z,27.30
2022-11-05T07:55:35.410Z,27.20
2022-11-05T07:58:02.658Z,27.10
2022-11-05T08:00:30.322Z,27.60
2022-11-05T08:03:08.755Z,27.40
2022-11-05T08:05:38.855Z,27.50
2022-11-05T08:08:08.303Z,27.20
2022-11-05T08:10:35.719Z,26.90
2022-11-05T08:13:02.887Z,26.80
2022-11-05T08:15:30.176Z,27.30
2022-11-05T08:18:03.577Z,27.60
2022-11-05T08:20:31.260Z,27.10
2022-11-05T08:22:58.471Z,27.10
2022-11-05T08:25:25.977Z,26.20
2022-11-05T08:28:01.355Z,25.70
2022-11-05T08:30:28.754Z,25.20
2022-11-05T08:33:04.548Z,25.00
2022-11-05T08:35:31.671Z,24.80
2022-11-05T08:38:00.822Z,24.90
2022-11-05T08:40:29.387Z,25.50
2022-11-05T08:43:04.792Z,24.90
2022-11-05T08:45:32.059Z,24.10
2022-11-05T08:48:19.698Z,23.80
2022-11-05T08:50:48.747Z,24.30
2022-11-05T08:53:16.352Z,24.40
2022-11-05T08:55:44.268Z,24.90
2022-11-05T08:58:17.174Z,25.50
2022-11-05T09:00:49.957Z,25.50
2022-11-05T09:03:17.703Z,25.90
2022-11-05T09:05:44.906Z,25.80
2022-11-05T09:08:14.531Z,25.20
2022-11-05T09:10:42.386Z,24.90
2022-11-05T09:13:16.509Z,24.80
2022-11-05T09:15:45.677Z,25.40
2022-11-05T09:18:14.654Z,25.20
2022-11-05T09:20:42.279Z,25.10
2022-11-05T09:23:10.504Z,25.60
2022-11-05T09:25:38.258Z,25.90
2022-11-05T09:28:17.660Z,25.10
2022-11-05T09:30:47.033Z,24.50
2022-11-05T09:33:14.579Z,24.30
2022-11-05T09:35:42.324Z,23.80
2022-11-05T09:38:10.017Z,23.40
2022-11-05T09:41:01.324Z,23.20
2022-11-05T09:43:35.490Z,22.50
2022-11-05T09:46:19.561Z,22.40
2022-11-05T09:48:53.268Z,22.50
2022-11-05T09:51:24.150Z,22.40
2022-11-05T09:53:51.759Z,22.20
2022-11-05T09:56:26.314Z,22.70
2022-11-05T09:59:03.387Z,22.80
2022-11-05T10:01:37.878Z,23.70
2022-11-05T10:04:18.141Z,24.00
2022-11-05T10:07:06.513Z,23.90
2022-11-05T10:09:40.297Z,24.20
2022-11-05T10:12:23.183Z,25.00
2022-11-05T10:14:59.643Z,24.50
2022-11-05T10:17:28.738Z,24.80
2022-11-05T10:20:11.068Z,24.80
2022-11-05T10:22:38.978Z,25.00
2022-11-05T10:25:20.156Z,25.00
2022-11-05T10:27:52.059Z,24.70
2022-11-05T10:30:19.772Z,24.60
2022-11-05T10:32:48.151Z,24.30
2022-11-05T10:35:23.166Z,23.90
2022-11-05T10:37:55.757Z,23.60
2022-11-05T10:40:57.187Z,23.80
2022-11-05T10:43:44.573Z,23.60
2022-11-05T10:46:56.705Z,23.80
2022-11-05T10:49:51.375Z,23.70
2022-11-05T10:52:24.235Z,23.80
2022-11-05T10:54:55.398Z,23.90
2022-11-05T10:57:37.821Z,23.80
2022-11-05T11:00:20.712Z,23.80
2022-11-05T11:02:57.163Z,23.60
2022-11-05T11:05:44.328Z,23.10
2022-11-05T11:08:11.309Z,22.50
2022-11-05T11:10:48.285Z,21.70
2022-11-05T11:13:23.810Z,21.70
2022-11-05T11:15:51.357Z,21.60
2022-11-05T11:18:26.612Z,21.60
2022-11-05T11:20:54.398Z,22.00
2022-11-05T11:23:21.410Z,22.00
2022-11-05T11:26:00.925Z,22.40
2022-11-05T11:28:32.004Z,22.30
2022-11-05T11:31:05.037Z,22.30
2022-11-05T11:33:33.626Z,23.10
2022-11-05T11:36:01.057Z,22.80
2022-11-05T11:38:36.878Z,23.50
2022-11-05T11:41:38.644Z,23.30
2022-11-05T11:44:16.493Z,22.70
2022-11-05T11:46:49.767Z,22.30
2022-11-05T11:49:38.740Z,21.80
2022-11-05T11:52:19.667Z,21.00
2022-11-05T11:54:46.630Z,20.10
2022-11-05T11:57:26.000Z,20.40
2022-11-05T12:00:08.146Z,20.90
2022-11-05T12:03:13.787Z,20.90
2022-11-05T12:06:00.105Z,20.90
2022-11-05T12:09:03.420Z,20.90
2022-11-05T12:11:43.353Z,21.20
2022-11-05T12:14:46.489Z,20.90
2022-11-05T12:17:26.494Z,21.70
2022-11-05T12:19:56.497Z,21.60
2022-11-05T12:22:34.875Z,21.80
2022-11-05T12:25:04.619Z,21.50
2022-11-05T12:27:43.733Z,21.50
2022-11-05T12:30:17.283Z,22.00
2022-11-05T12:32:59.201Z,21.80
2022-11-05T12:35:48.841Z,21.70
2022-11-05T12:39:06.906Z,21.90
2022-11-05T12:42:00.152Z,21.60
2022-11-05T12:44:57.185Z,21.80
2022-11-05T12:47:41.854Z,22.10
2022-11-05T12:50:27.838Z,22.20
2022-11-05T12:53:22.327Z,21.90
2022-11-05T12:55:50.450Z,22.20
2022-11-05T12:58:27.034Z,22.00
2022-11-05T13:01:02.461Z,21.10
2022-11-05T13:03:52.988Z,20.60
2022-11-05T13:06:27.661Z,20.50
2022-11-05T13:09:24.302Z,20.50
2022-11-05T13:12:03.245Z,21.00
2022-11-05T13:14:47.509Z,20.80
2022-11-05T13:17:25.137Z,20.40
2022-11-05T13:19:55.047Z,20.20
2022-11-05T13:22:42.189Z,19.30
2022-11-05T13:25:20.145Z,18.70
2022-11-05T13:28:05.597Z,18.70
2022-11-05T13:30:38.280Z,18.70
2022-11-05T13:33:14.750Z,19.20
2022-11-05T13:35:43.957Z,19.60
2022-11-05T13:38:39.249Z,20.10
2022-11-05T13:41:22.064Z,20.30
2022-11-05T13:43:48.964Z,21.30
2022-11-05T13:46:22.703Z,22.20
2022-11-05T13:48:58.607Z,22.00
2022-11-05T13:52:03.645Z,21.80
2022-11-05T13:55:14.780Z,21.70
2022-11-05T13:58:01.529Z,22.00
2022-11-05T14:00:37.362Z,22.70
2022-11-05T14:03:17.308Z,22.70
2022-11-05T14:05:53.462Z,23.10
2022-11-05T14:08:26.325Z,22.90
2022-11-05T14:11:28.393Z,22.80
2022-11-05T14:14:00.227Z,22.30
2022-11-05T14:16:40.861Z,22.50
2022-11-05T14:19:19.628Z,22.50
2022-11-05T14:21:54.741Z,22.80
2022-11-05T14:24:21.657Z,23.30
2022-11-05T14:27:00.979Z,23.80
2022-11-05T14:29:48.532Z,24.60
2022-11-05T14:32:18.879Z,24.10
2022-11-05T14:34:54.122Z,24.30
2022-11-05T14:37:33.132Z,24.60
2022-11-05T14:40:22.078Z,23.90
2022-11-05T14:42:58.557Z,23.50
2022-11-05T14:45:39.403Z,23.40
2022-11-05T14:48:26.598Z,23.20
2022-11-05T14:50:53.884Z,22.80
2022-11-05T14:53:41.213Z,22.60
2022-11-05T14:56:17.483Z,22.90
2022-11-05T14:58:45.536Z,22.90
2022-11-05T15:01:15.342Z,23.80
2022-11-05T15:03:46.193Z,23.70
2022-11-05T15:06:28.118Z,23.60
2022-11-05T15:09:00.805Z,23.80
2022-11-05T15:11:58.009Z,24.40
2022-11-05T15:14:33.838Z,24.20
2022-11-05T15:17:40.414Z,24.10
2022-11-05T15:20:13.697Z,24.10
2022-11-05T15:22:44.145Z,23.90
2022-11-05T15:25:23.294Z,24.10
2022-11-05T15:28:03.767Z,25.00
2022-11-05T15:30:31.677Z,24.50
2022-11-05T15:33:31.542Z,24.60
2022-11-05T15:36:23.359Z,24.30
2022-11-05T15:39:08.502Z,24.30
2022-11-05T15:41:38.381Z,24.90
2022-11-05T15:44:05.427Z,24.80
2022-11-05T15:46:32.356Z,24.70
2022-11-05T15:49:04.847Z,24.40
2022-11-05T15:51:31.882Z,24.70
2022-11-05T15:56:55.967Z,24.90
2022-11-05T15:59:23.658Z,25.00
2022-11-05T16:02:02.162Z,25.20
2022-11-05T16:04:32.332Z,25.60
2022-11-05T16:07:09.644Z,26.10
2022-11-05T16:09:40.120Z,25.80
2022-11-05T16:12:19.771Z,25.50
2022-11-05T16:15:08.191Z,25.50
2022-11-05T16:17:38.068Z,25.50
2022-11-05T16:20:22.999Z,25.60
2022-11-05T16:22:56.714Z,25.80
2022-11-05T16:25:51.905Z,25.70
2022-11-05T16:28:28.315Z,25.70
2022-11-05T16:31:00.874Z,26.10
2022-11-05T16:33:34.062Z,26.40
2022-11-05T16:36:01.081Z,26.50
2022-11-05T16:38:28.327Z,26.50
2022-11-05T16:40:55.731Z,26.70
2022-11-05T16:43:26.579Z,26.50
2022-11-05T16:45:55.708Z,26.50
2022-11-05T16:48:22.998Z,26.80
2022-11-05T16:50:50.247Z,26.80
2022-11-05T16:53:17.582Z,26.80
2022-11-05T16:55:45.924Z,26.60
2022-11-05T16:58:23.362Z,26.30
2022-11-05T17:00:52.230Z,26.60
2022-11-05T17:03:19.310Z,26.70
2022-11-05T17:05:47.000Z,26.80
2022-11-05T17:08:14.192Z,26.80
2022-11-05T17:10:41.373Z,26.70
2022-11-05T17:13:13.205Z,26.50
2022-11-05T17:15:40.231Z,26.80
2022-11-05T17:18:07.230Z,26.70
2022-11-05T17:20:40.749Z,26.90
2022-11-05T17:23:10.974Z,26.80
2022-11-05T17:25:40.099Z,26.40
2022-11-05T17:28:07.998Z,26.50
2022-11-05T17:30:35.122Z,27.00
2022-11-05T17:33:02.473Z,27.20
2022-11-05T17:35:29.479Z,27.20
2022-11-05T17:37:56.647Z,27.30
2022-11-05T17:40:24.277Z,27.00
2022-11-05T17:42:51.946Z,27.60
2022-11-05T17:45:19.351Z,26.70
2022-11-05T17:47:46.390Z,26.50
2022-11-05T17:50:15.831Z,26.90
2022-11-05T17:52:42.837Z,26.80
2022-11-05T17:55:16.806Z,26.50
2022-11-05T17:57:46.140Z,26.40
2022-11-05T18:00:16.178Z,26.40
2022-11-05T18:02:43.541Z,25.70
2022-11-05T18:05:11.363Z,26.20
2022-11-05T18:07:38.633Z,26.90
2022-11-05T18:10:06.609Z,27.30
2022-11-05T18:12:34.053Z,27.20
2022-11-05T18:15:01.035Z,27.00
2022-11-05T18:17:29.822Z,26.70
2022-11-05T18:19:56.956Z,26.50
2022-11-05T18:22:24.264Z,26.20
2022-11-05T18:24:51.386Z,25.90
2022-11-05T18:27:18.502Z,25.80
2022-11-05T18:29:46.220Z,25.60
2022-11-05T18:32:13.240Z,25.50
2022-11-05T18:34:40.346Z,25.30
2022-11-05T18:37:07.324Z,25.70
2022-11-05T18:39:35.395Z,26.40
2022-11-05T18:42:02.520Z,26.40
2022-11-05T18:44:31.000Z,26.80
2022-11-05T18:46:59.995Z,26.70
2022-11-05T18:49:27.483Z,26.70
2022-11-05T18:51:54.771Z,26.80
2022-11-05T18:54:22.603Z,26.30
2022-11-05T18:56:49.595Z,26.10
2022-11-05T19:02:07.236Z,24.90
2022-11-05T19:04:36.536Z,25.00
2022-11-05T19:07:05.337Z,25.10
2022-11-05T19:09:34.161Z,25.40
2022-11-05T19:12:01.776Z,25.90
2022-11-05T19:14:30.256Z,26.00
2022-11-05T19:17:01.291Z,26.10
2022-11-05T19:19:28.573Z,26.70
2022-11-05T19:21:55.698Z,27.40
2022-11-05T19:24:22.848Z,26.40
2022-11-05T19:26:50.528Z,25.90
2022-11-05T19:29:17.876Z,25.40
2022-11-05T19:31:45.161Z,25.10
2022-11-05T19:34:13.523Z,25.10
2022-11-05T19:36:41.540Z,25.00
2022-11-05T19:39:11.268Z,24.70
2022-11-05T19:41:38.296Z,25.00
2022-11-05T19:44:05.394Z,25.40
2022-11-05T19:46:33.417Z,25.80
2022-11-05T19:49:01.438Z,25.60
2022-11-05T19:51:30.233Z,25.60
2022-11-05T19:54:00.071Z,25.30
2022-11-05T19:56:30.063Z,25.10
2022-11-05T19:58:57.542Z,24.90
2022-11-05T20:01:26.318Z,24.60
2022-11-05T20:03:54.857Z,24.40
2022-11-05T20:06:29.495Z,24.80
2022-11-05T20:11:50.226Z,25.00
2022-11-05T20:14:17.355Z,25.40
2022-11-05T20:16:45.929Z,26.00
2022-11-05T20:19:21.263Z,26.40
2022-11-05T20:21:48.525Z,26.70
2022-11-05T20:24:23.730Z,26.50
2022-11-05T20:26:55.891Z,27.00
2022-11-05T20:29:24.249Z,27.30
2022-11-05T20:31:53.251Z,27.30
2022-11-05T20:34:20.279Z,27.00
2022-11-05T20:36:47.226Z,27.70
2022-11-05T20:39:14.430Z,27.80
2022-11-05T20:41:41.662Z,27.80
2022-11-05T20:44:08.689Z,27.90
2022-11-05T20:46:35.659Z,27.60
2022-11-05T20:49:02.592Z,27.70
2022-11-05T20:51:29.774Z,27.20
2022-11-05T20:53:59.309Z,27.30
2022-11-05T20:56:32.358Z,27.60
2022-11-05T20:59:00.539Z,27.60
2022-11-05T21:01:33.643Z,26.90
2022-11-05T21:04:00.987Z,26.50
2022-11-05T21:06:28.263Z,26.50
2022-11-05T21:08:55.650Z,26.30
2022-11-05T21:11:23.458Z,25.80
2022-11-05T21:13:50.672Z,25.50
2022-11-05T21:16:19.889Z,25.60
2022-11-05T21:18:47.905Z,25.60
2022-11-05T21:21:18.883Z,25.20
2022-11-05T21:23:46.343Z,25.20
2022-11-05T21:26:15.058Z,25.20
2022-11-05T21:28:42.549Z,25.20
2022-11-05T21:31:11.118Z,25.10
2022-11-05T21:33:38.581Z,25.10
2022-11-05T21:36:07.840Z,25.30
2022-11-05T21:38:35.373Z,25.40
2022-11-05T21:41:03.670Z,25.60
2022-11-05T21:43:30.800Z,25.50
2022-11-05T21:46:01.601Z,25.10
2022-11-05T21:48:28.856Z,24.50
2022-11-05T21:51:14.224Z,24.10
2022-11-05T21:54:00.118Z,24.40
2022-11-05T21:56:46.046Z,24.30
2022-11-05T21:59:37.522Z,24.20
2022-11-05T22:02:05.371Z,24.10
2022-11-05T22:04:34.801Z,24.10
2022-11-05T22:07:02.245Z,24.50
2022-11-05T22:09:29.592Z,24.70
2022-11-05T22:11:57.015Z,24.80
2022-11-05T22:14:24.983Z,24.60
2022-11-05T22:16:52.131Z,24.30
2022-11-05T22:19:19.590Z,25.00
2022-11-05T22:21:47.281Z,25.10
2022-11-05T22:24:14.320Z,25.00
2022-11-05T22:26:42.796Z,25.00
2022-11-05T22:29:10.170Z,25.50
2022-11-05T22:31:37.121Z,26.00
2022-11-05T22:34:05.851Z,25.80
2022-11-05T22:36:33.500Z,25.80
2022-11-05T22:39:00.623Z,26.20
2022-11-05T22:41:28.397Z,26.30
2022-11-05T22:43:55.925Z,26.90
2022-11-05T22:46:25.971Z,27.20
2022-11-05T22:48:53.490Z,26.60
2022-11-05T22:51:23.765Z,26.60
2022-11-05T22:53:51.052Z,26.80
2022-11-05T22:56:20.907Z,27.00
2022-11-05T22:58:48.564Z,26.90
2022-11-05T23:01:16.322Z,26.70
2022-11-05T23:03:45.950Z,26.30
2022-11-05T23:06:44.716Z,26.30
2022-11-05T23:09:41.901Z,26.10
2022-11-05T23:12:27.240Z,25.60
2022-11-05T23:14:55.888Z,25.10
2022-11-05T23:17:41.745Z,24.70
2022-11-05T23:20:32.527Z,24.50
2022-11-05T23:23:18.218Z,24.40
2022-11-05T23:25:46.351Z,24.60
2022-11-05T23:28:14.329Z,24.60
2022-11-05T23:31:03.631Z,24.40
2022-11-05T23:33:34.211Z,24.30
2022-11-05T23:36:20.069Z,24.50
2022-11-05T23:38:47.096Z,24.50
2022-11-05T23:41:32.675Z,24.20
2022-11-05T23:44:18.131Z,23.90
2022-11-05T23:47:06.045Z,23.50
2022-11-05T23:49:32.980Z,23.40
2022-11-05T23:51:59.877Z,23.30
2022-11-05T23:54:26.843Z,23.30
2022-11-05T23:56:53.736Z,23.40
2022-11-05T23:59:20.672Z,23.50
